Time;durP1;ratioP1;P1;durP2;ratioP2;P2;SDS_P1;SDS_P2;PMS_P1;PMS_P2;Temp;Humidity;BMP_temperature;BMP_pressure;BME280_temperature;BME280_humidity;BME280_pressure;Samples;Min_cycle;Max_cycle;Signal;HPM_P1;HPM_P2
2023/03/19 00:01:47;;;;;;;;;;;20.40;46.50;;;;;;5052498;28;20385;-63
2023/03/19 00:04:15;;;;;;;;;;;20.30;46.40;;;;;;5070765;28;19931;-62
2023/03/19 00:06:41;;;;;;;;;;;20.40;46.40;;;;;;5070402;28;19924;-62
2023/03/19 00:09:09;;;;;;;;;;;20.40;46.50;;;;;;5055940;28;19946;-63
2023/03/19 00:11:35;;;;;;;;;;;20.30;46.40;;;;;;5070765;28;20321;-63
2023/03/19 00:14:02;;;;;;;;;;;20.30;46.40;;;;;;5072041;28;19920;-63
2023/03/19 00:16:29;;;;;;;;;;;20.30;46.40;;;;;;5057328;28;19924;-62
2023/03/19 00:18:57;;;;;;;;;;;20.30;46.40;;;;;;5071117;28;19920;-62
2023/03/19 00:21:24;;;;;;;;;;;20.30;46.40;;;;;;5072458;28;19927;-62
2023/03/19 00:23:51;;;;;;;;;;;20.30;46.40;;;;;;5053603;28;20535;-62
2023/03/19 00:26:18;;;;;;;;;;;20.30;46.40;;;;;;5051518;28;19924;-61
2023/03/19 00:28:45;;;;;;;;;;;20.30;46.40;;;;;;5052322;28;19920;-62
2023/03/19 00:31:12;;;;;;;;;;;20.30;46.40;;;;;;5068274;28;19966;-63
2023/03/19 00:33:39;;;;;;;;;;;20.30;46.40;;;;;;5052112;28;19978;-62
2023/03/19 00:36:08;;;;;;;;;;;20.30;46.40;;;;;;5051774;28;19921;-62
2023/03/19 00:38:35;;;;;;;;;;;20.30;46.40;;;;;;5069134;28;19920;-61
2023/03/19 00:41:02;;;;;;;;;;;20.30;46.40;;;;;;5052012;28;19920;-63
2023/03/19 00:43:29;;;;;;;;;;;20.30;46.40;;;;;;5051353;28;20393;-62
2023/03/19 00:45:55;;;;;;;;;;;20.30;46.40;;;;;;5051398;28;19928;-62
2023/03/19 00:48:22;;;;;;;;;;;20.30;46.40;;;;;;5057002;28;20428;-64
2023/03/19 00:50:49;;;;;;;;;;;20.30;46.50;;;;;;5034542;28;19925;-62
2023/03/19 00:53:17;;;;;;;;;;;20.30;46.40;;;;;;5051400;28;19925;-62
2023/03/19 00:55:44;;;;;;;;;;;20.30;46.50;;;;;;5050856;28;19974;-62
2023/03/19 00:58:11;;;;;;;;;;;20.30;46.50;;;;;;5043210;28;19920;-62
2023/03/19 01:00:38;;;;;;;;;;;20.30;46.50;;;;;;5069266;28;19936;-62
2023/03/19 01:03:05;;;;;;;;;;;20.30;46.50;;;;;;5060640;28;20066;-62
2023/03/19 01:05:31;;;;;;;;;;;20.30;46.50;;;;;;5051421;28;19982;-61
2023/03/19 01:07:58;;;;;;;;;;;20.30;46.50;;;;;;5051489;28;19924;-62
2023/03/19 01:10:27;;;;;;;;;;;20.30;46.50;;;;;;5051790;28;19925;-63
2023/03/19 01:12:53;;;;;;;;;;;20.30;46.50;;;;;;5058521;28;20014;-62
2023/03/19 01:15:20;;;;;;;;;;;20.30;46.50;;;;;;5071724;28;20323;-62
2023/03/19 01:17:47;;;;;;;;;;;20.30;46.50;;;;;;5038347;28;19952;-63
2023/03/19 01:20:17;;;;;;;;;;;20.30;46.50;;;;;;5047426;28;19933;-62
2023/03/19 01:22:44;;;;;;;;;;;20.30;46.50;;;;;;5036483;28;19988;-62
2023/03/19 01:25:11;;;;;;;;;;;20.30;46.50;;;;;;5051372;28;19921;-62
2023/03/19 01:27:40;;;;;;;;;;;20.30;46.50;;;;;;5056353;28;19920;-62
2023/03/19 01:30:07;;;;;;;;;;;20.30;46.50;;;;;;5075661;28;19970;-62
2023/03/19 01:32:34;;;;;;;;;;;20.30;46.50;;;;;;5074956;28;19920;-62
2023/03/19 01:35:01;;;;;;;;;;;20.30;46.50;;;;;;5067278;28;20379;-62
2023/03/19 01:37:28;;;;;;;;;;;20.30;46.50;;;;;;5071975;28;19920;-62
2023/03/19 01:39:55;;;;;;;;;;;20.30;46.50;;;;;;5054109;28;19927;-62
2023/03/19 01:42:22;;;;;;;;;;;20.30;46.50;;;;;;5056107;28;20305;-64
2023/03/19 01:44:50;;;;;;;;;;;20.30;46.50;;;;;;5061904;28;20036;-62
2023/03/19 01:47:18;;;;;;;;;;;20.30;46.50;;;;;;5054323;28;19920;-61
2023/03/19 01:49:46;;;;;;;;;;;20.30;46.60;;;;;;5075430;28;19951;-61
2023/03/19 01:52:13;;;;;;;;;;;20.30;46.60;;;;;;5073637;28;19927;-63
2023/03/19 01:54:40;;;;;;;;;;;20.30;46.60;;;;;;5071138;28;19928;-64
2023/03/19 01:57:07;;;;;;;;;;;20.30;46.50;;;;;;5054605;28;19921;-62
2023/03/19 01:59:35;;;;;;;;;;;20.30;46.60;;;;;;5073110;28;19974;-62
2023/03/19 02:02:05;;;;;;;;;;;20.30;46.60;;;;;;5066636;28;19952;-63
2023/03/19 02:04:31;;;;;;;;;;;20.30;46.60;;;;;;5074366;28;19927;-62
2023/03/19 02:06:58;;;;;;;;;;;20.30;46.60;;;;;;5062235;28;19920;-63
2023/03/19 02:09:25;;;;;;;;;;;20.30;46.60;;;;;;5053317;28;19920;-63
2023/03/19 02:11:52;;;;;;;;;;;20.30;46.60;;;;;;5064475;28;20038;-63
2023/03/19 02:14:18;;;;;;;;;;;20.30;46.50;;;;;;5054671;28;19925;-61
2023/03/19 02:16:45;;;;;;;;;;;20.30;46.60;;;;;;5054118;28;19972;-62
2023/03/19 02:19:15;;;;;;;;;;;20.30;46.60;;;;;;5054727;28;19974;-62
2023/03/19 02:21:41;;;;;;;;;;;20.30;46.60;;;;;;5072513;28;20317;-62
2023/03/19 02:24:10;;;;;;;;;;;20.30;46.60;;;;;;5065231;28;19920;-62
2023/03/19 02:26:38;;;;;;;;;;;20.30;46.60;;;;;;5071406;28;20354;-62
2023/03/19 02:29:04;;;;;;;;;;;20.30;46.60;;;;;;5042957;28;19949;-62
2023/03/19 02:31:31;;;;;;;;;;;20.30;46.60;;;;;;5068179;28;19927;-62
2023/03/19 02:33:59;;;;;;;;;;;20.30;46.60;;;;;;5070678;28;19924;-64
2023/03/19 02:36:26;;;;;;;;;;;20.30;46.60;;;;;;5053553;28;19925;-62
2023/03/19 02:38:52;;;;;;;;;;;20.30;46.60;;;;;;5063235;28;19970;-62
2023/03/19 02:41:20;;;;;;;;;;;20.30;46.60;;;;;;5057558;28;19924;-62
2023/03/19 02:43:48;;;;;;;;;;;20.30;46.60;;;;;;5053646;28;19928;-61
2023/03/19 02:46:15;;;;;;;;;;;20.30;46.60;;;;;;5049834;28;19921;-62
2023/03/19 02:48:42;;;;;;;;;;;20.30;46.60;;;;;;5042669;28;20424;-61
2023/03/19 02:51:09;;;;;;;;;;;20.30;46.60;;;;;;5051241;28;19924;-62
2023/03/19 02:53:36;;;;;;;;;;;20.30;46.60;;;;;;5061018;28;19920;-61
2023/03/19 02:56:03;;;;;;;;;;;20.30;46.60;;;;;;5070041;28;20002;-62
2023/03/19 02:58:30;;;;;;;;;;;20.30;46.60;;;;;;5053903;28;19974;-63
2023/03/19 03:00:58;;;;;;;;;;;20.30;46.60;;;;;;5071069;28;19921;-62
2023/03/19 03:03:25;;;;;;;;;;;20.30;46.70;;;;;;5075785;28;19920;-61
2023/03/19 03:05:52;;;;;;;;;;;20.30;46.60;;;;;;5071114;28;20023;-63
2023/03/19 03:08:19;;;;;;;;;;;20.30;46.60;;;;;;5053437;28;19925;-62
2023/03/19 03:10:46;;;;;;;;;;;20.30;46.60;;;;;;5033889;28;19920;-61
2023/03/19 03:13:14;;;;;;;;;;;20.30;46.70;;;;;;5056261;28;20414;-62
2023/03/19 03:15:41;;;;;;;;;;;20.30;46.60;;;;;;5053621;28;19924;-61
2023/03/19 03:18:09;;;;;;;;;;;20.30;46.60;;;;;;5052794;28;19978;-62
2023/03/19 03:20:36;;;;;;;;;;;20.30;46.70;;;;;;5053282;28;20026;-62
2023/03/19 03:23:03;;;;;;;;;;;20.30;46.70;;;;;;5053272;28;19924;-61
2023/03/19 03:25:30;;;;;;;;;;;20.30;46.70;;;;;;5071032;28;19927;-62
2023/03/19 03:27:57;;;;;;;;;;;20.30;46.70;;;;;;5053684;28;20367;-63
2023/03/19 03:30:24;;;;;;;;;;;20.30;46.70;;;;;;5053309;28;19970;-62
2023/03/19 03:32:50;;;;;;;;;;;20.30;46.70;;;;;;5052095;28;19932;-62
2023/03/19 03:35:21;;;;;;;;;;;20.30;46.70;;;;;;5052351;28;19920;-62
2023/03/19 03:37:47;;;;;;;;;;;20.30;46.70;;;;;;5051490;28;19958;-62
2023/03/19 03:40:16;;;;;;;;;;;20.30;46.70;;;;;;5089718;28;19920;-61
2023/03/19 03:42:43;;;;;;;;;;;20.30;46.70;;;;;;5073153;28;19920;-63
2023/03/19 03:45:11;;;;;;;;;;;20.30;46.70;;;;;;5072279;28;19985;-61
2023/03/19 03:47:38;;;;;;;;;;;20.30;46.70;;;;;;5055590;28;19933;-62
2023/03/19 03:50:06;;;;;;;;;;;20.30;46.70;;;;;;5055206;28;19920;-62
2023/03/19 03:52:34;;;;;;;;;;;20.30;46.70;;;;;;5070611;28;19924;-62
2023/03/19 03:55:01;;;;;;;;;;;20.30;46.70;;;;;;5073737;28;19951;-63
2023/03/19 03:57:28;;;;;;;;;;;20.30;46.70;;;;;;5065376;28;19986;-62
2023/03/19 03:59:54;;;;;;;;;;;20.30;46.70;;;;;;5072300;28;20224;-63
2023/03/19 04:02:21;;;;;;;;;;;20.30;46.80;;;;;;5057902;28;19920;-62
2023/03/19 04:04:48;;;;;;;;;;;20.30;46.80;;;;;;5052308;28;19925;-64
2023/03/19 04:07:15;;;;;;;;;;;20.30;46.70;;;;;;5067314;28;19942;-61
2023/03/19 04:09:44;;;;;;;;;;;20.30;46.70;;;;;;5070109;28;19942;-62
2023/03/19 04:12:11;;;;;;;;;;;20.30;46.70;;;;;;5051596;28;19920;-62
2023/03/19 04:14:38;;;;;;;;;;;20.30;46.70;;;;;;5052163;28;19924;-62
2023/03/19 04:17:05;;;;;;;;;;;20.30;46.70;;;;;;5036418;28;19978;-62
2023/03/19 04:19:32;;;;;;;;;;;20.30;46.80;;;;;;5069678;28;19927;-62
2023/03/19 04:21:59;;;;;;;;;;;20.30;46.70;;;;;;5068998;28;19932;-60
2023/03/19 04:24:26;;;;;;;;;;;20.30;46.70;;;;;;5060180;28;19920;-61
2023/03/19 04:26:54;;;;;;;;;;;20.30;46.70;;;;;;5076382;28;19920;-61
2023/03/19 04:29:21;;;;;;;;;;;20.30;46.70;;;;;;5070404;28;19924;-62
2023/03/19 04:31:48;;;;;;;;;;;20.30;46.80;;;;;;5070229;28;19963;-63
2023/03/19 04:34:16;;;;;;;;;;;20.30;46.70;;;;;;5051074;28;19924;-62
2023/03/19 04:36:43;;;;;;;;;;;20.30;46.70;;;;;;5069776;28;19920;-62
2023/03/19 04:39:09;;;;;;;;;;;20.30;46.70;;;;;;5051131;28;19966;-62
2023/03/19 04:41:37;;;;;;;;;;;20.30;46.70;;;;;;5069216;28;19928;-63
2023/03/19 04:44:06;;;;;;;;;;;20.30;46.70;;;;;;5051942;28;19925;-61
2023/03/19 04:46:33;;;;;;;;;;;20.30;46.70;;;;;;5050819;28;19955;-62
2023/03/19 04:49:00;;;;;;;;;;;20.30;46.70;;;;;;5073786;28;19924;-62
2023/03/19 04:51:27;;;;;;;;;;;20.30;46.80;;;;;;5072040;28;19970;-62
2023/03/19 04:53:53;;;;;;;;;;;20.30;46.80;;;;;;5060456;28;19920;-63
2023/03/19 04:56:20;;;;;;;;;;;20.30;46.70;;;;;;5055466;28;20023;-63
2023/03/19 04:58:47;;;;;;;;;;;20.30;46.80;;;;;;5034581;28;19928;-62
2023/03/19 05:01:15;;;;;;;;;;;20.30;46.80;;;;;;5068870;28;19924;-61
2023/03/19 05:03:42;;;;;;;;;;;20.30;46.80;;;;;;5074171;28;20404;-61
2023/03/19 05:06:10;;;;;;;;;;;20.30;46.80;;;;;;5065161;28;19973;-61
2023/03/19 05:08:37;;;;;;;;;;;20.30;46.80;;;;;;5056102;28;19920;-63
2023/03/19 05:11:04;;;;;;;;;;;20.30;46.80;;;;;;5069325;28;19931;-61
2023/03/19 05:13:31;;;;;;;;;;;20.30;46.80;;;;;;5055109;28;19979;-61
2023/03/19 05:15:58;;;;;;;;;;;20.30;46.80;;;;;;5054848;28;19924;-61
2023/03/19 05:18:28;;;;;;;;;;;20.30;46.80;;;;;;5054832;28;20085;-62
2023/03/19 05:20:54;;;;;;;;;;;20.30;46.80;;;;;;5055370;28;19951;-63
2023/03/19 05:23:21;;;;;;;;;;;20.30;46.80;;;;;;5072600;28;20437;-61
2023/03/19 05:25:48;;;;;;;;;;;20.30;46.80;;;;;;5054822;28;19921;-62
2023/03/19 05:28:15;;;;;;;;;;;20.30;46.80;;;;;;5055431;28;19931;-62
2023/03/19 05:30:42;;;;;;;;;;;20.30;46.80;;;;;;5058086;28;19924;-64
2023/03/19 05:33:08;;;;;;;;;;;20.30;46.80;;;;;;5055534;28;20420;-62
2023/03/19 05:35:39;;;;;;;;;;;20.30;46.80;;;;;;5065786;28;19925;-63
2023/03/19 05:38:06;;;;;;;;;;;20.30;46.80;;;;;;5035387;28;19925;-63
2023/03/19 05:40:33;;;;;;;;;;;20.30;46.80;;;;;;5050026;28;19920;-61
2023/03/19 05:43:00;;;;;;;;;;;20.30;46.80;;;;;;5055049;28;20323;-62
2023/03/19 05:45:27;;;;;;;;;;;20.30;46.80;;;;;;5054346;28;20248;-61
2023/03/19 05:47:54;;;;;;;;;;;20.30;46.80;;;;;;5071762;28;20209;-62
2023/03/19 05:50:21;;;;;;;;;;;20.30;46.80;;;;;;5055002;28;20359;-61
2023/03/19 05:52:49;;;;;;;;;;;20.30;46.80;;;;;;5053551;28;19920;-61
2023/03/19 05:55:16;;;;;;;;;;;20.30;46.80;;;;;;5050693;28;20000;-61
2023/03/19 05:57:43;;;;;;;;;;;20.30;46.90;;;;;;5052121;28;19921;-63
2023/03/19 06:00:11;;;;;;;;;;;20.30;46.80;;;;;;5055162;28;19990;-61
2023/03/19 06:02:37;;;;;;;;;;;20.30;46.80;;;;;;5051606;28;19975;-61
2023/03/19 06:05:04;;;;;;;;;;;20.30;46.90;;;;;;5052498;28;19920;-61
2023/03/19 06:07:31;;;;;;;;;;;20.30;46.90;;;;;;5069504;28;20006;-62
2023/03/19 06:09:59;;;;;;;;;;;20.30;46.80;;;;;;5052829;28;20011;-61
2023/03/19 06:12:28;;;;;;;;;;;20.30;46.80;;;;;;5069406;28;20343;-62
2023/03/19 06:14:56;;;;;;;;;;;20.30;46.80;;;;;;5052525;28;19974;-61
2023/03/19 06:17:22;;;;;;;;;;;20.30;46.80;;;;;;5053821;28;19920;-61
2023/03/19 06:19:49;;;;;;;;;;;20.30;46.80;;;;;;5052618;28;20010;-65
2023/03/19 06:22:16;;;;;;;;;;;20.30;46.80;;;;;;5071024;28;19998;-62
2023/03/19 06:24:43;;;;;;;;;;;20.30;46.90;;;;;;5054143;28;19946;-62
2023/03/19 06:27:11;;;;;;;;;;;20.30;46.80;;;;;;5053006;28;20370;-62
2023/03/19 06:29:38;;;;;;;;;;;20.30;46.90;;;;;;5071958;28;19975;-65
2023/03/19 06:32:06;;;;;;;;;;;20.30;46.90;;;;;;5068925;28;19959;-61
2023/03/19 06:34:33;;;;;;;;;;;20.30;46.90;;;;;;5053472;28;19920;-62
2023/03/19 06:36:59;;;;;;;;;;;20.30;46.90;;;;;;5051762;28;19921;-63
2023/03/19 06:39:26;;;;;;;;;;;20.30;46.90;;;;;;5051051;28;19920;-62
2023/03/19 06:41:53;;;;;;;;;;;20.30;46.90;;;;;;5036897;28;20005;-61
2023/03/19 06:44:21;;;;;;;;;;;20.30;46.80;;;;;;5053929;28;19970;-62
2023/03/19 06:46:48;;;;;;;;;;;20.30;46.90;;;;;;5052720;28;19974;-61
2023/03/19 06:49:15;;;;;;;;;;;20.30;46.90;;;;;;5052977;28;19934;-60
2023/03/19 06:51:42;;;;;;;;;;;20.30;46.90;;;;;;5051562;28;19970;-62
2023/03/19 06:54:09;;;;;;;;;;;20.30;46.90;;;;;;5053108;28;19925;-61
2023/03/19 06:56:36;;;;;;;;;;;20.30;46.90;;;;;;5052653;28;19978;-61
2023/03/19 06:59:02;;;;;;;;;;;20.30;46.80;;;;;;5052276;28;19951;-61
2023/03/19 07:01:31;;;;;;;;;;;20.30;46.80;;;;;;5052914;28;20012;-61
2023/03/19 07:03:58;;;;;;;;;;;20.30;46.80;;;;;;5053162;28;20518;-64
2023/03/19 07:06:25;;;;;;;;;;;20.30;46.90;;;;;;5051322;28;19931;-62
2023/03/19 07:08:52;;;;;;;;;;;20.30;46.80;;;;;;5069411;28;19924;-65
2023/03/19 07:11:19;;;;;;;;;;;20.30;46.80;;;;;;5051460;28;19920;-61
2023/03/19 07:13:46;;;;;;;;;;;20.40;46.90;;;;;;5066850;28;19925;-62
2023/03/19 07:16:12;;;;;;;;;;;20.30;46.80;;;;;;5051578;28;19920;-62
2023/03/19 07:18:41;;;;;;;;;;;20.30;46.80;;;;;;5052327;28;19920;-61
2023/03/19 07:21:07;;;;;;;;;;;20.30;46.80;;;;;;5067616;28;19967;-63
2023/03/19 07:23:34;;;;;;;;;;;20.30;46.80;;;;;;5052975;28;19929;-61
2023/03/19 07:26:02;;;;;;;;;;;20.30;46.90;;;;;;5042715;28;19940;-62
2023/03/19 07:28:29;;;;;;;;;;;20.40;47.00;;;;;;5056236;28;19928;-64
2023/03/19 07:30:56;;;;;;;;;;;20.30;46.80;;;;;;5050456;28;20007;-62
2023/03/19 07:33:23;;;;;;;;;;;20.30;46.90;;;;;;5037566;28;19920;-61
2023/03/19 07:35:51;;;;;;;;;;;20.30;46.90;;;;;;5069971;28;19947;-61
2023/03/19 07:38:17;;;;;;;;;;;20.40;47.00;;;;;;5052717;28;19974;-62
2023/03/19 07:40:44;;;;;;;;;;;20.30;46.80;;;;;;5061323;28;19946;-61
2023/03/19 07:43:11;;;;;;;;;;;20.40;46.90;;;;;;5084682;28;19931;-63
2023/03/19 07:45:38;;;;;;;;;;;20.40;46.90;;;;;;5049304;28;19932;-62
2023/03/19 07:48:05;;;;;;;;;;;20.30;46.80;;;;;;5047122;28;19939;-63
2023/03/19 07:50:32;;;;;;;;;;;20.40;46.90;;;;;;5046595;28;19924;-63
2023/03/19 07:53:01;;;;;;;;;;;20.30;46.90;;;;;;5055011;28;19925;-63
2023/03/19 07:55:27;;;;;;;;;;;20.30;46.80;;;;;;5066844;28;19920;-63
2023/03/19 07:57:54;;;;;;;;;;;20.40;46.90;;;;;;5065602;28;19974;-62
2023/03/19 08:00:21;;;;;;;;;;;20.40;46.90;;;;;;5070179;28;19928;-62
2023/03/19 08:02:48;;;;;;;;;;;20.40;46.90;;;;;;5056543;28;20062;-63
2023/03/19 08:05:15;;;;;;;;;;;20.40;46.90;;;;;;5070483;28;19924;-62
2023/03/19 08:07:43;;;;;;;;;;;20.40;46.90;;;;;;5060530;28;19920;-63
2023/03/19 08:10:12;;;;;;;;;;;20.30;46.80;;;;;;5050561;28;19940;-63
2023/03/19 08:12:40;;;;;;;;;;;20.40;46.80;;;;;;5048743;28;20052;-61
2023/03/19 08:15:07;;;;;;;;;;;20.30;46.70;;;;;;5053566;28;19921;-63
2023/03/19 08:17:36;;;;;;;;;;;20.40;46.90;;;;;;5080153;28;19966;-63
2023/03/19 08:20:04;;;;;;;;;;;20.40;46.80;;;;;;5063769;28;20351;-63
2023/03/19 08:22:31;;;;;;;;;;;20.40;46.80;;;;;;5050977;28;19950;-61
2023/03/19 08:24:58;;;;;;;;;;;20.40;46.80;;;;;;5056212;28;20363;-62
2023/03/19 08:27:27;;;;;;;;;;;20.40;46.80;;;;;;5060780;28;19920;-62
2023/03/19 08:29:53;;;;;;;;;;;20.40;46.80;;;;;;5056313;28;19920;-62
2023/03/19 08:32:20;;;;;;;;;;;20.40;46.80;;;;;;5050343;28;19920;-62
2023/03/19 08:34:47;;;;;;;;;;;20.40;46.80;;;;;;5067158;28;19978;-63
2023/03/19 08:37:14;;;;;;;;;;;20.40;46.80;;;;;;5050897;28;19952;-63
2023/03/19 08:39:43;;;;;;;;;;;20.40;46.80;;;;;;5041038;28;19920;-61
2023/03/19 08:42:10;;;;;;;;;;;20.40;46.80;;;;;;5051285;28;19927;-62
2023/03/19 08:44:38;;;;;;;;;;;20.40;46.80;;;;;;5051387;28;19920;-63
2023/03/19 08:47:05;;;;;;;;;;;20.40;46.80;;;;;;5068974;28;19966;-62
2023/03/19 08:49:32;;;;;;;;;;;20.40;46.80;;;;;;5060131;28;19924;-61
2023/03/19 08:51:58;;;;;;;;;;;20.40;46.80;;;;;;5066633;28;19972;-62
2023/03/19 08:54:25;;;;;;;;;;;20.40;46.80;;;;;;5067663;28;19986;-63
2023/03/19 08:56:52;;;;;;;;;;;20.40;46.80;;;;;;5049171;28;19924;-62
2023/03/19 08:59:19;;;;;;;;;;;20.40;46.80;;;;;;5067790;28;19924;-61
2023/03/19 09:01:48;;;;;;;;;;;20.40;46.80;;;;;;5049481;28;19931;-60
2023/03/19 09:04:15;;;;;;;;;;;20.40;46.80;;;;;;5061067;28;19931;-62
2023/03/19 09:06:42;;;;;;;;;;;20.40;46.80;;;;;;5052609;28;19924;-63
2023/03/19 09:09:09;;;;;;;;;;;20.40;46.80;;;;;;5055882;28;19925;-62
2023/03/19 09:11:35;;;;;;;;;;;20.40;46.80;;;;;;5044050;28;19970;-63
2023/03/19 09:14:02;;;;;;;;;;;20.40;46.80;;;;;;5042405;28;19986;-62
2023/03/19 09:16:30;;;;;;;;;;;20.40;46.80;;;;;;5042524;28;19929;-64
2023/03/19 09:18:58;;;;;;;;;;;20.40;46.80;;;;;;5048304;28;19932;-62
2023/03/19 09:21:25;;;;;;;;;;;20.40;46.80;;;;;;5047393;28;19990;-62
2023/03/19 09:23:51;;;;;;;;;;;20.40;46.80;;;;;;5039178;28;19955;-62
2023/03/19 09:26:18;;;;;;;;;;;20.40;47.40;;;;;;5044860;28;19974;-63
2023/03/19 09:28:45;;;;;;;;;;;20.40;46.80;;;;;;5051088;28;19924;-62
2023/03/19 09:31:11;;;;;;;;;;;20.40;46.80;;;;;;5039582;28;19993;-62
2023/03/19 09:33:38;;;;;;;;;;;20.40;46.80;;;;;;5033614;28;20327;-62
2023/03/19 09:36:07;;;;;;;;;;;20.40;46.80;;;;;;5043130;28;19925;-62
2023/03/19 09:38:34;;;;;;;;;;;20.40;46.80;;;;;;5039976;28;19927;-62
2023/03/19 09:41:11;;;;;;;;;;;20.40;46.80;;;;;;5039826;28;19951;-63
2023/03/19 09:43:40;;;;;;;;;;;20.40;47.00;;;;;;5036105;28;19939;-63
2023/03/19 09:46:09;;;;;;;;;;;20.40;46.80;;;;;;5062374;28;19931;-62
2023/03/19 09:48:40;;;;;;;;;;;20.40;46.80;;;;;;5042719;28;19921;-63
2023/03/19 09:51:10;;;;;;;;;;;20.40;46.80;;;;;;5046865;28;19954;-63
2023/03/19 09:53:38;;;;;;;;;;;20.40;46.80;;;;;;5050666;28;19925;-63
2023/03/19 09:56:06;;;;;;;;;;;20.40;46.80;;;;;;5047475;28;20040;-62
2023/03/19 09:58:33;;;;;;;;;;;20.40;46.80;;;;;;5059699;28;19928;-63
2023/03/19 10:01:00;;;;;;;;;;;20.40;46.90;;;;;;5062044;28;19986;-62
2023/03/19 10:03:33;;;;;;;;;;;20.40;46.80;;;;;;5041050;28;19920;-62
2023/03/19 10:06:02;;;;;;;;;;;20.40;46.80;;;;;;5063512;28;20018;-62
2023/03/19 10:08:44;;;;;;;;;;;20.40;46.80;;;;;;5061020;28;19994;-64
2023/03/19 10:11:23;;;;;;;;;;;20.40;46.80;;;;;;5047820;28;20251;-61
2023/03/19 10:13:53;;;;;;;;;;;20.40;46.80;;;;;;5058442;28;19927;-61
2023/03/19 10:16:20;;;;;;;;;;;20.40;46.80;;;;;;5060192;28;19925;-62
2023/03/19 10:18:47;;;;;;;;;;;20.40;46.80;;;;;;5056828;28;19981;-64
2023/03/19 10:21:16;;;;;;;;;;;20.40;46.80;;;;;;5052832;28;19974;-63
2023/03/19 10:23:45;;;;;;;;;;;20.40;46.80;;;;;;5055321;28;19992;-62
2023/03/19 10:26:13;;;;;;;;;;;20.50;46.80;;;;;;5053197;28;19920;-62
2023/03/19 10:28:42;;;;;;;;;;;20.40;46.80;;;;;;5054897;28;20305;-62
2023/03/19 10:31:13;;;;;;;;;;;20.40;46.70;;;;;;5056774;28;19920;-63
2023/03/19 10:33:43;;;;;;;;;;;20.50;46.80;;;;;;5050204;28;20366;-62
2023/03/19 10:36:09;;;;;;;;;;;20.50;46.80;;;;;;5054998;28;19924;-63
2023/03/19 10:38:39;;;;;;;;;;;20.50;46.80;;;;;;5070463;28;19920;-62
2023/03/19 10:41:11;;;;;;;;;;;20.50;46.80;;;;;;5067438;28;19966;-63
2023/03/19 10:43:38;;;;;;;;;;;20.50;46.80;;;;;;5054214;28;19924;-62
2023/03/19 10:46:04;;;;;;;;;;;20.50;46.80;;;;;;5055776;28;19960;-63
2023/03/19 10:48:33;;;;;;;;;;;20.50;46.80;;;;;;5051892;28;19944;-62
2023/03/19 10:51:00;;;;;;;;;;;20.50;46.80;;;;;;5058608;28;19983;-62
2023/03/19 10:53:29;;;;;;;;;;;20.50;46.70;;;;;;5055317;28;19979;-62
2023/03/19 10:55:56;;;;;;;;;;;20.50;46.70;;;;;;5066087;28;20352;-62
2023/03/19 10:58:27;;;;;;;;;;;20.50;46.70;;;;;;5070865;28;20333;-62
2023/03/19 11:00:55;;;;;;;;;;;20.50;46.70;;;;;;5068833;28;19989;-63
2023/03/19 11:03:29;;;;;;;;;;;20.50;46.80;;;;;;5085005;28;19920;-62
2023/03/19 11:06:03;;;;;;;;;;;20.50;46.70;;;;;;5069100;28;19920;-61
2023/03/19 11:08:29;;;;;;;;;;;20.50;46.70;;;;;;5043531;28;19925;-63
2023/03/19 11:10:56;;;;;;;;;;;20.50;46.80;;;;;;5054653;28;19925;-62
2023/03/19 11:13:25;;;;;;;;;;;20.50;46.70;;;;;;5070532;28;19925;-61
2023/03/19 11:15:52;;;;;;;;;;;20.50;46.80;;;;;;5044926;28;20282;-62
2023/03/19 11:18:19;;;;;;;;;;;20.50;46.70;;;;;;5056723;28;19978;-60
2023/03/19 11:20:48;;;;;;;;;;;20.50;46.70;;;;;;5055681;28;19920;-62
2023/03/19 11:23:15;;;;;;;;;;;20.50;46.70;;;;;;5052693;28;19981;-62
2023/03/19 11:25:42;;;;;;;;;;;20.50;46.70;;;;;;5054309;28;19920;-63
2023/03/19 11:28:09;;;;;;;;;;;20.50;46.80;;;;;;5065912;28;19944;-64
2023/03/19 11:30:39;;;;;;;;;;;20.50;46.80;;;;;;5056576;28;19978;-62
2023/03/19 11:33:15;;;;;;;;;;;20.50;46.70;;;;;;5069988;28;19927;-62
2023/03/19 11:35:42;;;;;;;;;;;20.50;46.70;;;;;;5050599;28;20008;-63
2023/03/19 11:38:11;;;;;;;;;;;20.50;46.80;;;;;;5045064;28;19986;-63
2023/03/19 11:40:41;;;;;;;;;;;20.50;46.80;;;;;;5074051;28;19925;-61
2023/03/19 11:43:27;;;;;;;;;;;20.50;46.70;;;;;;5052950;28;19975;-63
2023/03/19 11:45:57;;;;;;;;;;;20.50;46.70;;;;;;5051913;28;19924;-62
2023/03/19 11:48:28;;;;;;;;;;;20.50;46.80;;;;;;5057623;28;19924;-63
2023/03/19 11:50:58;;;;;;;;;;;20.50;46.70;;;;;;5073041;28;19943;-61
2023/03/19 11:53:37;;;;;;;;;;;20.50;46.80;;;;;;5059728;28;20015;-59
2023/03/19 11:56:06;;;;;;;;;;;20.50;46.70;;;;;;5055429;28;20206;-61
2023/03/19 11:58:46;;;;;;;;;;;20.50;46.70;;;;;;5058601;28;19921;-60
2023/03/19 12:01:18;;;;;;;;;;;20.50;46.80;;;;;;5055433;28;19955;-60
2023/03/19 12:03:56;;;;;;;;;;;20.50;46.80;;;;;;5060241;28;19928;-63
2023/03/19 12:06:25;;;;;;;;;;;20.50;46.80;;;;;;5052825;28;19932;-61
2023/03/19 12:08:54;;;;;;;;;;;20.60;47.00;;;;;;5070344;28;20262;-62
2023/03/19 12:11:23;;;;;;;;;;;20.60;47.00;;;;;;5060279;28;19921;-62
2023/03/19 12:13:58;;;;;;;;;;;20.60;47.10;;;;;;5073283;28;19931;-62
2023/03/19 12:16:29;;;;;;;;;;;20.60;47.10;;;;;;5037715;28;19924;-63
2023/03/19 12:19:04;;;;;;;;;;;20.60;47.20;;;;;;5052839;28;19959;-62
2023/03/19 12:21:32;;;;;;;;;;;20.60;47.20;;;;;;5041191;28;19939;-63
2023/03/19 12:24:03;;;;;;;;;;;20.60;47.20;;;;;;5052258;28;19920;-63
2023/03/19 12:26:32;;;;;;;;;;;20.60;47.20;;;;;;5062380;28;19925;-62
2023/03/19 12:29:00;;;;;;;;;;;20.60;47.20;;;;;;5041915;28;19925;-62
2023/03/19 12:31:41;;;;;;;;;;;20.60;47.20;;;;;;5045953;28;19925;-62
2023/03/19 12:34:28;;;;;;;;;;;20.60;47.20;;;;;;5066670;28;19924;-62
2023/03/19 12:36:57;;;;;;;;;;;20.60;47.20;;;;;;5049139;28;19932;-63
2023/03/19 12:39:24;;;;;;;;;;;20.60;47.20;;;;;;5045094;28;20294;-62
2023/03/19 12:41:52;;;;;;;;;;;20.60;47.20;;;;;;5041786;28;19928;-63
2023/03/19 12:44:19;;;;;;;;;;;20.60;47.20;;;;;;5052018;28;20410;-62
2023/03/19 12:46:48;;;;;;;;;;;20.60;47.20;;;;;;5044193;28;19924;-63
2023/03/19 12:49:14;;;;;;;;;;;20.60;47.20;;;;;;5054892;28;19920;-61
2023/03/19 12:51:42;;;;;;;;;;;20.60;47.20;;;;;;5052357;28;19990;-62
2023/03/19 12:54:12;;;;;;;;;;;20.60;47.20;;;;;;5062405;28;19925;-62
2023/03/19 12:56:40;;;;;;;;;;;20.60;47.20;;;;;;5046164;28;19928;-61
2023/03/19 12:59:09;;;;;;;;;;;20.60;47.30;;;;;;5069366;28;19974;-64
2023/03/19 13:01:37;;;;;;;;;;;20.60;47.30;;;;;;5065638;28;19924;-63
2023/03/19 13:04:06;;;;;;;;;;;20.60;47.30;;;;;;5051269;28;19921;-61
2023/03/19 13:06:34;;;;;;;;;;;20.60;47.30;;;;;;5054483;28;19947;-63
2023/03/19 13:09:01;;;;;;;;;;;20.60;47.30;;;;;;5069599;28;19931;-63
2023/03/19 13:11:33;;;;;;;;;;;20.60;47.30;;;;;;5065416;28;19928;-63
2023/03/19 13:14:01;;;;;;;;;;;20.60;47.30;;;;;;5064350;28;19971;-62
2023/03/19 13:16:30;;;;;;;;;;;20.60;47.40;;;;;;5068905;28;19935;-62
2023/03/19 13:18:58;;;;;;;;;;;20.60;47.40;;;;;;5052969;28;20613;-62
2023/03/19 13:21:26;;;;;;;;;;;20.60;47.40;;;;;;5061810;28;19921;-62
2023/03/19 13:23:59;;;;;;;;;;;20.60;47.40;;;;;;5060362;28;19924;-62
2023/03/19 13:26:25;;;;;;;;;;;20.60;47.40;;;;;;5060533;28;19920;-61
2023/03/19 13:28:55;;;;;;;;;;;20.60;47.40;;;;;;5061075;28;19982;-63
2023/03/19 13:31:22;;;;;;;;;;;20.60;47.40;;;;;;5041605;28;19921;-60
2023/03/19 13:33:52;;;;;;;;;;;20.60;47.40;;;;;;5073252;28;19920;-63
2023/03/19 13:36:18;;;;;;;;;;;20.60;47.40;;;;;;5071814;28;20388;-61
2023/03/19 13:38:46;;;;;;;;;;;20.60;47.40;;;;;;5075946;28;19942;-62
2023/03/19 13:41:38;;;;;;;;;;;20.60;47.40;;;;;;5055036;28;19920;-62
2023/03/19 13:44:18;;;;;;;;;;;20.60;47.40;;;;;;5069582;28;19928;-62
2023/03/19 13:46:45;;;;;;;;;;;20.60;47.40;;;;;;5052759;28;20155;-63
2023/03/19 13:49:28;;;;;;;;;;;20.60;47.50;;;;;;5054807;28;19973;-62
2023/03/19 13:51:57;;;;;;;;;;;20.60;47.50;;;;;;5072185;28;19960;-62
2023/03/19 13:54:38;;;;;;;;;;;20.60;47.50;;;;;;5055278;28;19969;-63
2023/03/19 13:57:13;;;;;;;;;;;20.60;47.50;;;;;;5049866;28;19920;-61
2023/03/19 13:59:42;;;;;;;;;;;20.60;47.50;;;;;;5053687;28;19920;-63
2023/03/19 14:02:24;;;;;;;;;;;20.60;47.50;;;;;;5054284;28;19920;-64
2023/03/19 14:04:51;;;;;;;;;;;20.60;47.50;;;;;;5060525;28;19943;-62
2023/03/19 14:07:19;;;;;;;;;;;20.60;47.50;;;;;;5070859;28;19970;-62
2023/03/19 14:09:47;;;;;;;;;;;20.60;47.50;;;;;;5045169;28;19933;-61
2023/03/19 14:12:21;;;;;;;;;;;20.60;47.50;;;;;;5037383;28;19943;-62
2023/03/19 14:14:49;;;;;;;;;;;20.60;47.60;;;;;;5051437;28;19991;-63
2023/03/19 14:17:16;;;;;;;;;;;20.60;47.50;;;;;;5072525;28;19963;-62
2023/03/19 14:19:43;;;;;;;;;;;20.60;47.50;;;;;;5055352;28;19920;-62
2023/03/19 14:22:10;;;;;;;;;;;20.60;47.50;;;;;;5053661;28;19925;-61